Airport ID:K00U
Update Time (UTC):18/06/2021 06:06
Wind Speed (Knots):8
Wind Direction (Magnetic):330
Temperature (°C):17
Dew Point (°C):0
Humidity (%):29
Altimeter (inHg):30
Density Altitude (Feet):4100
Visibility:10+
Clouds (Hundreds of feet):CLR
Present Weather:
METAR:METAR K00U 180605Z AUTO 34008KT 10SM CLR 18/M00 A3000 RMK A01

The data displayed is for advisory purposes only and is not to be used for flight planning or operations.